Time;durP1;ratioP1;P1;durP2;ratioP2;P2;SDS_P1;SDS_P2;PMS_P1;PMS_P2;Temp;Humidity;BMP_temperature;BMP_pressure;BME280_temperature;BME280_humidity;BME280_pressure;Samples;Min_cycle;Max_cycle;Signal;HPM_P1;HPM_P2
2022/03/26 00:00:08;;;;;;;0.90;0.90;;;10.10;59.20;;;;;;4993152;28;20386;-75
2022/03/26 00:02:33;;;;;;;2.10;2.00;;;10.20;59.20;;;;;;4993886;28;20406;-75
2022/03/26 00:04:59;;;;;;;0.60;0.60;;;10.10;59.70;;;;;;4993062;28;20448;-75
2022/03/26 00:07:26;;;;;;;0.90;0.80;;;10.10;59.60;;;;;;4993696;28;20394;-75
2022/03/26 00:09:51;;;;;;;0.40;0.25;;;10.10;59.10;;;;;;5009549;28;20763;-75
2022/03/26 00:12:17;;;;;;;0.60;0.60;;;10.00;59.50;;;;;;5032271;28;20391;-75
2022/03/26 00:14:43;;;;;;;1.40;0.90;;;10.00;60.00;;;;;;5032944;28;20407;-75
2022/03/26 00:17:09;;;;;;;1.20;1.10;;;10.00;61.90;;;;;;5031083;28;20393;-76
2022/03/26 00:19:34;;;;;;;1.90;1.80;;;9.90;61.10;;;;;;5033010;28;20398;-75
2022/03/26 00:22:00;;;;;;;1.42;1.33;;;9.90;61.30;;;;;;5032650;28;20393;-75
2022/03/26 00:24:26;;;;;;;1.10;1.00;;;9.80;61.70;;;;;;5032073;28;20478;-77
2022/03/26 00:26:52;;;;;;;0.40;0.40;;;9.90;62.50;;;;;;5032987;28;20383;-75
2022/03/26 00:29:18;;;;;;;1.05;0.93;;;9.80;61.30;;;;;;5030796;28;20414;-77
2022/03/26 00:31:44;;;;;;;1.33;1.23;;;9.90;61.70;;;;;;5032603;28;20390;-77
2022/03/26 00:34:09;;;;;;;0.80;0.80;;;9.80;61.70;;;;;;5032719;28;20872;-77
2022/03/26 00:36:35;;;;;;;0.60;0.60;;;9.80;63.20;;;;;;5031808;28;20399;-77
2022/03/26 00:39:02;;;;;;;0.50;0.50;;;9.70;62.80;;;;;;5032464;28;20386;-77
2022/03/26 00:41:28;;;;;;;2.00;1.70;;;9.80;62.20;;;;;;5032159;28;20521;-77
2022/03/26 00:43:55;;;;;;;1.10;0.80;;;9.70;62.80;;;;;;5032604;28;20383;-77
2022/03/26 00:46:21;;;;;;;0.60;0.60;;;9.70;63.40;;;;;;5032570;28;20379;-76
2022/03/26 00:48:47;;;;;;;8.70;2.10;;;9.70;62.50;;;;;;5030507;28;20709;-76
2022/03/26 00:51:15;;;;;;;0.85;0.85;;;9.70;63.00;;;;;;5032427;28;20388;-76
2022/03/26 00:53:42;;;;;;;0.40;0.30;;;9.70;63.50;;;;;;5031706;28;20942;-76
2022/03/26 00:56:08;;;;;;;1.17;1.02;;;9.60;63.40;;;;;;5031028;28;20577;-76
2022/03/26 00:58:33;;;;;;;0.40;0.20;;;9.70;62.10;;;;;;5032054;28;20470;-75
2022/03/26 01:00:59;;;;;;;4.40;1.40;;;9.80;61.80;;;;;;5031344;28;20379;-76
2022/03/26 01:03:24;;;;;;;1.20;1.20;;;9.80;61.70;;;;;;5020826;28;20397;-76
2022/03/26 01:05:50;;;;;;;2.30;0.90;;;9.80;61.50;;;;;;5003112;28;20392;-76
2022/03/26 01:08:16;;;;;;;1.40;1.30;;;9.80;62.50;;;;;;4992445;28;20403;-76
2022/03/26 01:10:44;;;;;;;0.60;0.45;;;9.70;63.70;;;;;;5005876;28;20424;-76
2022/03/26 01:13:13;;;;;;;0.60;0.60;;;9.40;63.60;;;;;;5011302;28;20384;-76
2022/03/26 01:15:39;;;;;;;0.40;0.40;;;9.20;64.60;;;;;;5012272;28;20715;-76
2022/03/26 01:18:06;;;;;;;0.50;0.50;;;9.10;64.80;;;;;;5011544;28;20408;-76
2022/03/26 01:20:32;;;;;;;0.40;0.40;;;9.00;66.00;;;;;;5012318;28;20377;-77
2022/03/26 01:22:59;;;;;;;0.40;0.20;;;8.90;65.70;;;;;;5011314;28;20381;-77
2022/03/26 01:25:25;;;;;;;0.40;0.30;;;8.80;67.40;;;;;;5011676;28;20393;-77
2022/03/26 01:27:51;;;;;;;2.00;1.03;;;8.70;68.20;;;;;;5011519;28;20381;-77
2022/03/26 01:30:17;;;;;;;0.90;0.90;;;8.60;68.80;;;;;;5010760;28;20954;-77
2022/03/26 01:32:43;;;;;;;0.50;0.50;;;8.50;69.50;;;;;;5011627;28;20874;-77
2022/03/26 01:35:09;;;;;;;1.73;1.63;;;8.50;69.90;;;;;;5010883;28;20408;-75
2022/03/26 01:37:35;;;;;;;1.40;1.30;;;8.60;70.60;;;;;;5011714;28;20424;-75
2022/03/26 01:40:02;;;;;;;0.90;0.90;;;8.60;69.50;;;;;;5010378;28;20682;-75
2022/03/26 01:42:27;;;;;;;1.50;1.40;;;8.60;68.60;;;;;;5011336;28;20392;-75
2022/03/26 01:44:53;;;;;;;0.70;0.70;;;8.60;70.10;;;;;;5011873;28;20761;-75
2022/03/26 01:47:18;;;;;;;0.60;0.60;;;8.60;70.20;;;;;;5010831;28;20468;-75
2022/03/26 01:49:44;;;;;;;0.40;0.20;;;8.40;71.00;;;;;;5011224;28;20452;-75
2022/03/26 01:52:10;;;;;;;2.00;1.30;;;8.40;71.70;;;;;;5009932;28;20886;-75
2022/03/26 01:54:38;;;;;;;0.50;0.50;;;8.30;73.40;;;;;;5011057;28;20408;-75
2022/03/26 01:57:04;;;;;;;0.90;0.70;;;8.20;72.80;;;;;;5011345;28;20401;-76
2022/03/26 01:59:32;;;;;;;0.40;0.30;;;8.10;73.20;;;;;;5010398;28;20797;-76
2022/03/26 02:01:57;;;;;;;0.98;0.88;;;8.10;73.10;;;;;;5011400;28;20385;-76
2022/03/26 02:04:24;;;;;;;0.93;0.93;;;8.10;73.40;;;;;;5009078;28;20392;-76
2022/03/26 02:06:50;;;;;;;2.08;1.98;;;8.00;73.20;;;;;;5010069;28;20451;-76
2022/03/26 02:09:16;;;;;;;0.55;0.52;;;8.00;72.90;;;;;;5007785;28;20382;-75
2022/03/26 02:11:44;;;;;;;1.40;1.20;;;8.10;72.30;;;;;;4990582;28;20921;-76
2022/03/26 02:14:11;;;;;;;0.40;0.30;;;8.00;72.90;;;;;;4991503;28;20410;-76
2022/03/26 02:16:38;;;;;;;0.40;0.23;;;7.90;73.00;;;;;;4990641;28;20430;-76
2022/03/26 02:19:06;;;;;;;0.50;0.50;;;7.80;73.60;;;;;;4990477;28;20497;-76
2022/03/26 02:21:34;;;;;;;2.30;1.60;;;7.90;74.50;;;;;;4990652;28;20381;-76
2022/03/26 02:24:03;;;;;;;2.60;1.30;;;7.80;73.80;;;;;;4990053;28;20394;-75
2022/03/26 02:26:30;;;;;;;1.30;1.20;;;7.90;74.70;;;;;;4991258;28;20470;-76
2022/03/26 02:28:57;;;;;;;0.80;0.80;;;7.80;74.70;;;;;;4990688;28;20480;-75
2022/03/26 02:31:23;;;;;;;1.40;1.20;;;7.80;74.40;;;;;;4989892;28;20414;-75
2022/03/26 02:33:49;;;;;;;1.05;0.55;;;7.70;75.70;;;;;;4990499;28;20562;-75
2022/03/26 02:36:16;;;;;;;1.60;1.50;;;7.70;77.20;;;;;;4989802;28;20399;-75
2022/03/26 02:38:41;;;;;;;3.20;1.77;;;7.60;77.50;;;;;;4989614;28;20394;-76
2022/03/26 02:41:08;;;;;;;0.50;0.50;;;7.70;77.70;;;;;;4991112;28;20477;-77
2022/03/26 02:43:34;;;;;;;0.90;0.70;;;7.60;76.90;;;;;;4991176;28;20393;-76
2022/03/26 02:46:00;;;;;;;1.50;1.40;;;7.70;77.10;;;;;;4990092;28;20405;-77
2022/03/26 02:48:26;;;;;;;1.63;1.10;;;7.70;77.00;;;;;;4991046;28;20398;-77
2022/03/26 02:50:52;;;;;;;0.50;0.50;;;7.70;76.70;;;;;;4990194;28;20548;-77
2022/03/26 02:53:17;;;;;;;1.70;1.60;;;7.70;77.40;;;;;;4991086;28;20763;-77
2022/03/26 02:55:44;;;;;;;1.60;1.50;;;7.90;77.30;;;;;;4990721;28;20402;-77
2022/03/26 02:58:10;;;;;;;4.00;1.50;;;7.90;75.30;;;;;;4990150;28;20394;-77
2022/03/26 03:00:37;;;;;;;0.53;0.53;;;8.00;74.50;;;;;;4989598;28;20394;-76
2022/03/26 03:03:04;;;;;;;1.40;1.25;;;7.90;77.20;;;;;;4990237;28;20390;-77
2022/03/26 03:05:30;;;;;;;0.60;0.50;;;7.60;78.80;;;;;;4991017;28;20391;-77
2022/03/26 03:07:56;;;;;;;0.80;0.80;;;7.50;82.10;;;;;;4989041;28;20809;-77
2022/03/26 03:10:22;;;;;;;0.40;0.30;;;7.40;83.10;;;;;;5002334;28;20405;-76
2022/03/26 03:12:48;;;;;;;1.00;0.90;;;7.40;84.60;;;;;;5010836;28;20438;-77
2022/03/26 03:15:18;;;;;;;3.00;1.30;;;7.30;83.90;;;;;;5008219;28;20409;-76
2022/03/26 03:17:45;;;;;;;0.40;0.40;;;7.20;83.70;;;;;;5009175;28;20400;-76
2022/03/26 03:20:11;;;;;;;0.70;0.70;;;7.20;84.50;;;;;;5009621;28;20392;-77
2022/03/26 03:22:38;;;;;;;0.40;0.20;;;7.10;85.70;;;;;;5010622;28;20443;-76
2022/03/26 03:25:06;;;;;;;1.63;1.00;;;7.00;85.70;;;;;;5010134;28;20396;-76
2022/03/26 03:27:32;;;;;;;0.60;0.60;;;7.00;87.50;;;;;;5008413;28;20397;-77
2022/03/26 03:29:58;;;;;;;1.70;1.60;;;7.00;87.60;;;;;;5010684;28;20392;-76
2022/03/26 03:32:24;;;;;;;3.00;0.90;;;7.10;90.30;;;;;;5009514;28;20380;-77
2022/03/26 03:34:51;;;;;;;0.40;0.30;;;7.20;88.20;;;;;;5010172;28;20422;-77
2022/03/26 03:37:17;;;;;;;0.40;0.30;;;7.20;86.60;;;;;;5009680;28;20439;-77
2022/03/26 03:39:43;;;;;;;1.25;1.25;;;7.20;84.90;;;;;;5010236;28;20377;-77
2022/03/26 03:42:09;;;;;;;0.80;0.70;;;7.10;87.30;;;;;;5009894;28;20485;-76
2022/03/26 03:44:35;;;;;;;2.00;1.90;;;7.10;89.90;;;;;;5009073;28;20869;-77
2022/03/26 03:47:01;;;;;;;1.77;1.67;;;6.90;90.10;;;;;;5010149;28;20388;-77
2022/03/26 03:49:26;;;;;;;1.20;1.10;;;6.90;90.90;;;;;;5008036;28;20797;-77
2022/03/26 03:51:53;;;;;;;0.50;0.50;;;6.80;90.40;;;;;;5012239;28;20384;-77
2022/03/26 03:54:19;;;;;;;0.80;0.80;;;6.90;90.50;;;;;;5013397;28;20421;-76
2022/03/26 03:56:44;;;;;;;1.40;1.10;;;6.90;90.20;;;;;;5012558;28;20396;-77
2022/03/26 03:59:12;;;;;;;1.60;1.50;;;6.90;89.80;;;;;;5013420;28;20443;-76
2022/03/26 04:01:38;;;;;;;0.50;0.50;;;6.90;87.80;;;;;;5012677;28;20385;-77
2022/03/26 04:04:04;;;;;;;1.60;1.50;;;6.90;89.10;;;;;;5012486;28;20412;-76
2022/03/26 04:06:29;;;;;;;1.10;1.00;;;6.90;90.10;;;;;;5013261;28;20473;-76
2022/03/26 04:08:55;;;;;;;0.75;0.75;;;6.80;90.20;;;;;;5012042;28;20691;-77
2022/03/26 04:11:36;;;;;;;0.80;0.80;;;6.80;90.90;;;;;;4993333;28;20402;-76
2022/03/26 04:14:01;;;;;;;1.17;1.05;;;6.80;90.90;;;;;;4993286;28;20414;-76
2022/03/26 04:16:28;;;;;;;0.40;0.30;;;6.80;91.70;;;;;;4993603;28;20445;-74
2022/03/26 04:18:53;;;;;;;0.50;0.50;;;6.80;91.10;;;;;;4993029;28;20474;-74
2022/03/26 04:21:19;;;;;;;0.40;0.20;;;6.90;90.40;;;;;;4993547;28;20820;-74
2022/03/26 04:23:45;;;;;;;0.83;0.63;;;6.70;90.90;;;;;;4992917;28;20395;-75
2022/03/26 04:26:10;;;;;;;0.90;0.90;;;6.60;92.90;;;;;;4993325;28;20429;-75
2022/03/26 04:28:36;;;;;;;0.80;0.80;;;6.60;92.20;;;;;;4993239;28;20398;-74
2022/03/26 04:31:03;;;;;;;0.40;0.30;;;6.70;92.60;;;;;;4992855;28;20390;-75
2022/03/26 04:33:28;;;;;;;0.40;0.30;;;6.70;92.20;;;;;;4993693;28;20442;-75
2022/03/26 04:35:54;;;;;;;0.70;0.70;;;6.60;93.50;;;;;;4993022;28;20433;-75
2022/03/26 04:38:20;;;;;;;0.80;0.80;;;6.50;93.40;;;;;;4993361;28;20497;-75
2022/03/26 04:40:46;;;;;;;0.43;0.43;;;6.40;94.10;;;;;;5009772;28;20483;-75
2022/03/26 04:43:13;;;;;;;0.40;0.20;;;6.40;93.90;;;;;;5012365;28;20381;-75
2022/03/26 04:45:39;;;;;;;1.30;1.10;;;6.40;94.00;;;;;;5013154;28;20389;-75
2022/03/26 04:48:05;;;;;;;0.50;0.50;;;6.40;94.60;;;;;;5012292;28;20384;-76
2022/03/26 04:50:31;;;;;;;0.43;0.40;;;6.50;93.30;;;;;;5013100;28;20392;-76
2022/03/26 04:52:57;;;;;;;0.40;0.20;;;6.60;93.10;;;;;;5012987;28;20377;-75
2022/03/26 04:55:23;;;;;;;4.40;1.50;;;6.70;92.80;;;;;;5012089;28;20496;-76
2022/03/26 04:57:48;;;;;;;0.80;0.80;;;6.70;92.20;;;;;;5012905;28;20381;-75
2022/03/26 05:00:17;;;;;;;0.80;0.80;;;6.90;90.70;;;;;;5012558;28;20833;-75
2022/03/26 05:02:44;;;;;;;0.65;0.65;;;7.00;88.70;;;;;;5012529;28;20397;-75
2022/03/26 05:05:12;;;;;;;0.40;0.30;;;7.10;88.50;;;;;;5012081;28;20405;-76
2022/03/26 05:07:47;;;;;;;0.40;0.30;;;7.20;87.80;;;;;;5009096;28;20758;-75
2022/03/26 05:10:18;;;;;;;1.50;1.40;;;7.00;88.80;;;;;;5011732;28;20409;-76
2022/03/26 05:12:45;;;;;;;0.60;0.60;;;6.80;91.40;;;;;;5012705;28;20488;-75
2022/03/26 05:15:11;;;;;;;1.20;1.20;;;6.80;91.90;;;;;;5012514;28;20409;-75
2022/03/26 05:17:37;;;;;;;1.33;1.23;;;6.70;93.00;;;;;;5011816;28;20399;-75
2022/03/26 05:20:05;;;;;;;1.30;0.70;;;6.50;93.50;;;;;;5012563;28;20785;-75
2022/03/26 05:22:31;;;;;;;2.78;1.60;;;6.40;94.00;;;;;;5011443;28;20384;-75
2022/03/26 05:24:57;;;;;;;0.90;0.90;;;6.30;94.20;;;;;;5012564;28;20381;-75
2022/03/26 05:27:23;;;;;;;0.73;0.28;;;6.30;94.40;;;;;;5011705;28;20396;-76
2022/03/26 05:29:49;;;;;;;0.60;0.50;;;6.20;95.20;;;;;;4995987;28;20387;-75
2022/03/26 05:32:15;;;;;;;0.90;0.90;;;6.10;96.00;;;;;;4992689;28;20410;-75
2022/03/26 05:34:42;;;;;;;0.75;0.75;;;6.10;95.40;;;;;;4991865;28;20421;-76
2022/03/26 05:37:07;;;;;;;0.40;0.30;;;6.10;96.30;;;;;;4992626;28;20529;-75
2022/03/26 05:39:33;;;;;;;0.40;0.20;;;6.20;95.60;;;;;;4990465;28;20470;-76
2022/03/26 05:42:02;;;;;;;1.50;1.40;;;6.10;95.10;;;;;;4992483;28;20394;-75
2022/03/26 05:44:28;;;;;;;0.40;0.30;;;6.10;96.70;;;;;;4992516;28;20387;-75
2022/03/26 05:46:54;;;;;;;0.40;0.20;;;6.00;97.20;;;;;;4991658;28;20395;-75
2022/03/26 05:49:21;;;;;;;0.67;0.67;;;5.90;98.10;;;;;;4992538;28;20478;-75
2022/03/26 05:51:47;;;;;;;0.57;0.50;;;5.90;98.00;;;;;;4991486;28;20398;-75
2022/03/26 05:54:14;;;;;;;0.70;0.70;;;6.00;99.10;;;;;;4992112;28;20403;-75
2022/03/26 05:56:40;;;;;;;0.90;0.90;;;5.70;99.90;;;;;;4991432;28;20414;-76
2022/03/26 05:59:09;;;;;;;1.70;1.60;;;6.00;98.80;;;;;;4992144;28;20387;-75
2022/03/26 06:01:36;;;;;;;0.40;0.30;;;6.20;97.70;;;;;;4991963;28;20402;-75
2022/03/26 06:04:02;;;;;;;0.40;0.30;;;6.10;98.70;;;;;;4991269;28;20394;-77
2022/03/26 06:06:27;;;;;;;2.70;2.00;;;6.10;99.40;;;;;;4991732;28;20895;-77
2022/03/26 06:08:53;;;;;;;0.80;0.80;;;6.00;99.40;;;;;;4991464;28;20383;-77
2022/03/26 06:11:19;;;;;;;0.52;0.52;;;6.00;99.00;;;;;;4991608;28;20797;-77
2022/03/26 06:13:44;;;;;;;0.40;0.30;;;6.10;99.50;;;;;;4990839;28;20763;-77
2022/03/26 06:16:10;;;;;;;0.40;0.40;;;6.10;98.90;;;;;;4991179;28;20433;-74
2022/03/26 06:18:36;;;;;;;1.55;0.98;;;6.20;95.90;;;;;;4991565;28;20394;-74
2022/03/26 06:21:05;;;;;;;0.50;0.50;;;6.40;94.10;;;;;;4991113;28;20394;-76
2022/03/26 06:23:31;;;;;;;0.50;0.50;;;6.40;93.40;;;;;;4990391;28;20398;-76
2022/03/26 06:25:57;;;;;;;2.00;1.70;;;6.40;93.30;;;;;;4991043;28;20473;-77
2022/03/26 06:28:23;;;;;;;0.60;0.60;;;6.50;93.20;;;;;;4989863;28;20477;-77
2022/03/26 06:30:48;;;;;;;0.80;0.80;;;6.50;93.70;;;;;;4991767;28;20387;-76
2022/03/26 06:33:16;;;;;;;1.08;1.02;;;6.60;93.20;;;;;;4990551;28;20935;-76
2022/03/26 06:35:42;;;;;;;0.45;0.43;;;6.90;92.20;;;;;;4991672;28;20477;-76
2022/03/26 06:38:08;;;;;;;0.47;0.47;;;6.80;92.90;;;;;;4990860;28;20863;-77
2022/03/26 06:40:34;;;;;;;0.70;0.60;;;6.90;92.50;;;;;;4991498;28;20472;-76
2022/03/26 06:43:00;;;;;;;0.80;0.80;;;6.80;92.90;;;;;;4990201;28;20406;-75
2022/03/26 06:45:25;;;;;;;0.40;0.27;;;6.80;93.00;;;;;;4990792;28;20431;-74
2022/03/26 06:47:51;;;;;;;0.60;0.60;;;6.60;93.30;;;;;;4990984;28;20903;-75
2022/03/26 06:50:17;;;;;;;1.17;0.67;;;6.70;93.20;;;;;;4990820;28;20461;-77
2022/03/26 06:52:43;;;;;;;1.80;0.70;;;6.80;93.50;;;;;;4990350;28;20464;-76
2022/03/26 06:55:09;;;;;;;0.73;0.73;;;6.80;92.90;;;;;;4991269;28;20958;-76
2022/03/26 06:57:35;;;;;;;0.40;0.20;;;6.90;93.10;;;;;;4989495;28;20772;-76
2022/03/26 07:00:01;;;;;;;2.40;2.20;;;7.00;92.20;;;;;;4991137;28;20395;-76
2022/03/26 07:02:27;;;;;;;0.50;0.50;;;7.10;92.40;;;;;;4991033;28;20820;-75
2022/03/26 07:04:54;;;;;;;0.60;0.60;;;7.10;92.00;;;;;;4991027;28;20433;-77
2022/03/26 07:07:19;;;;;;;2.00;1.90;;;7.00;91.80;;;;;;4991093;28;20398;-76
2022/03/26 07:09:45;;;;;;;1.50;1.40;;;7.00;91.40;;;;;;4997246;28;20413;-76
2022/03/26 07:12:12;;;;;;;0.40;0.35;;;7.00;91.40;;;;;;5010761;28;20388;-76
2022/03/26 07:14:38;;;;;;;1.20;0.90;;;7.00;91.70;;;;;;5010208;28;20488;-74
2022/03/26 07:17:04;;;;;;;0.40;0.30;;;7.20;91.50;;;;;;5010701;28;20419;-74
2022/03/26 07:19:30;;;;;;;0.90;0.80;;;7.10;91.20;;;;;;5010737;28;20460;-74
2022/03/26 07:21:56;;;;;;;1.30;1.20;;;7.30;91.00;;;;;;5009723;28;20752;-75
2022/03/26 07:24:22;;;;;;;0.80;0.80;;;7.30;91.40;;;;;;5010700;28;20510;-75
2022/03/26 07:26:47;;;;;;;2.35;1.65;;;7.40;91.00;;;;;;5014308;28;20438;-76
2022/03/26 07:29:13;;;;;;;2.40;1.80;;;7.50;90.90;;;;;;5008402;28;20416;-75
2022/03/26 07:31:39;;;;;;;1.20;1.10;;;7.60;90.60;;;;;;5007674;28;20382;-76
2022/03/26 07:34:04;;;;;;;0.80;0.70;;;7.60;90.50;;;;;;4996454;28;20919;-76
2022/03/26 07:36:32;;;;;;;2.00;1.90;;;7.60;90.10;;;;;;5025066;28;20385;-75
2022/03/26 07:38:58;;;;;;;2.40;1.83;;;7.50;90.00;;;;;;5014278;28;20385;-74
2022/03/26 07:41:24;;;;;;;0.60;0.60;;;7.60;89.40;;;;;;5014026;28;20397;-75
2022/03/26 07:43:50;;;;;;;0.40;0.30;;;7.80;88.90;;;;;;5012878;28;20690;-75
2022/03/26 07:46:18;;;;;;;0.70;0.70;;;7.90;88.40;;;;;;5013725;28;20401;-76
2022/03/26 07:48:45;;;;;;;1.70;1.60;;;7.90;89.00;;;;;;5012892;28;20829;-74
2022/03/26 07:51:10;;;;;;;1.10;1.00;;;8.00;86.80;;;;;;5013453;28;20468;-76
2022/03/26 07:53:36;;;;;;;1.30;1.20;;;8.00;86.90;;;;;;5011979;28;20496;-76
2022/03/26 07:56:02;;;;;;;1.40;0.90;;;8.10;87.10;;;;;;5014239;28;20451;-75
2022/03/26 07:58:28;;;;;;;1.80;1.70;;;8.10;86.30;;;;;;5013747;28;20381;-76
2022/03/26 08:00:53;;;;;;;1.53;1.47;;;8.10;86.60;;;;;;5014114;28;20385;-76
2022/03/26 08:03:19;;;;;;;0.50;0.50;;;8.10;86.40;;;;;;5011977;28;20423;-76
2022/03/26 08:05:45;;;;;;;1.77;1.50;;;8.20;86.20;;;;;;5013709;28;20381;-76
2022/03/26 08:08:11;;;;;;;1.20;1.10;;;8.30;85.60;;;;;;5014068;28;20438;-76
2022/03/26 08:10:37;;;;;;;0.90;0.90;;;8.40;85.00;;;;;;5012046;28;20476;-76
2022/03/26 08:13:03;;;;;;;0.60;0.60;;;8.40;85.00;;;;;;5012857;28;20389;-76
2022/03/26 08:15:29;;;;;;;5.25;2.33;;;8.50;84.50;;;;;;5011712;28;20546;-77
2022/03/26 08:17:54;;;;;;;1.00;1.00;;;8.50;84.70;;;;;;5013997;28;20377;-74
2022/03/26 08:20:20;;;;;;;0.70;0.70;;;8.50;84.00;;;;;;5013775;28;20385;-75
2022/03/26 08:22:46;;;;;;;1.63;1.53;;;8.70;84.30;;;;;;5011462;28;20873;-74
2022/03/26 08:26:19;;;;;;;0.90;0.90;;;8.80;83.40;;;;;;5010771;28;20795;-76
2022/03/26 08:27:57;;;;;;;0.85;0.85;;;9.00;83.00;;;;;;5012635;28;20436;-76
2022/03/26 08:30:23;;;;;;;1.43;1.33;;;9.00;82.80;;;;;;5015037;28;20442;-76
2022/03/26 08:32:48;;;;;;;1.40;1.30;;;9.20;82.10;;;;;;5009810;28;20392;-76
2022/03/26 08:35:15;;;;;;;1.80;1.60;;;9.10;82.10;;;;;;5011210;28;20972;-76
2022/03/26 08:37:40;;;;;;;1.70;1.08;;;9.10;82.40;;;;;;5013354;28;20737;-77
2022/03/26 08:40:07;;;;;;;1.20;1.20;;;9.20;82.80;;;;;;5013161;28;20392;-75
2022/03/26 08:42:34;;;;;;;0.40;0.40;;;9.30;81.50;;;;;;5021350;28;20785;-76
2022/03/26 08:44:59;;;;;;;0.40;0.30;;;9.40;81.70;;;;;;5032121;28;20395;-76
2022/03/26 08:47:25;;;;;;;0.90;0.90;;;9.40;81.10;;;;;;4997932;28;20855;-75
2022/03/26 08:49:51;;;;;;;1.17;1.07;;;9.40;81.20;;;;;;4993886;28;20494;-75
2022/03/26 08:52:17;;;;;;;0.70;0.70;;;9.50;81.10;;;;;;5003841;28;20394;-75
2022/03/26 08:54:43;;;;;;;2.28;2.08;;;9.70;81.00;;;;;;5008624;28;20414;-75
2022/03/26 08:57:09;;;;;;;1.70;1.40;;;9.80;80.30;;;;;;5004640;28;20400;-76
2022/03/26 08:59:34;;;;;;;1.00;1.00;;;9.90;80.00;;;;;;5003758;28;20376;-76
2022/03/26 09:02:00;;;;;;;1.17;1.17;;;10.00;77.50;;;;;;5005005;28;20385;-75
2022/03/26 09:04:26;;;;;;;0.40;0.30;;;10.20;77.20;;;;;;4999132;28;20398;-75
2022/03/26 09:06:52;;;;;;;1.70;1.30;;;10.20;77.20;;;;;;5003010;28;20413;-76
2022/03/26 09:09:18;;;;;;;0.40;0.33;;;10.40;77.30;;;;;;5000740;28;20493;-75
2022/03/26 09:11:44;;;;;;;1.00;0.90;;;10.40;76.60;;;;;;5003674;28;20480;-76
2022/03/26 09:14:14;;;;;;;2.03;1.83;;;10.70;76.70;;;;;;4999336;28;20414;-76
2022/03/26 09:16:40;;;;;;;0.60;0.50;;;10.60;75.30;;;;;;5001280;28;20814;-76
2022/03/26 09:19:05;;;;;;;0.50;0.50;;;10.60;74.90;;;;;;4998756;28;20489;-77
2022/03/26 09:21:31;;;;;;;2.33;1.23;;;10.60;74.90;;;;;;5002762;28;20998;-76
2022/03/26 09:23:57;;;;;;;2.00;1.90;;;10.80;75.40;;;;;;5003122;28;20401;-76
2022/03/26 09:26:23;;;;;;;1.10;0.70;;;10.90;74.70;;;;;;5000531;28;20759;-75
2022/03/26 09:28:48;;;;;;;3.70;1.30;;;11.00;74.10;;;;;;5000747;28;20775;-75
2022/03/26 09:31:14;;;;;;;2.00;1.60;;;11.10;73.60;;;;;;5003827;28;20513;-77
2022/03/26 09:33:40;;;;;;;2.30;1.35;;;11.30;72.10;;;;;;5003226;28;20497;-76
2022/03/26 09:36:06;;;;;;;1.60;1.50;;;11.40;72.30;;;;;;4995589;28;20412;-76
2022/03/26 09:38:31;;;;;;;3.05;1.33;;;11.50;73.90;;;;;;4999243;28;20437;-76
2022/03/26 09:40:58;;;;;;;1.70;1.60;;;11.60;72.60;;;;;;4999946;28;20925;-77
2022/03/26 09:43:24;;;;;;;0.80;0.55;;;11.70;71.50;;;;;;5004411;28;20823;-78
2022/03/26 09:45:50;;;;;;;0.52;0.52;;;11.70;71.20;;;;;;4998754;28;20399;-77
2022/03/26 09:48:16;;;;;;;0.70;0.30;;;11.70;71.60;;;;;;5001014;28;20394;-77
2022/03/26 09:50:43;;;;;;;0.80;0.80;;;12.00;71.20;;;;;;4998890;28;20480;-76
2022/03/26 09:53:12;;;;;;;0.90;0.90;;;12.10;70.50;;;;;;4999558;28;20477;-77
2022/03/26 09:55:39;;;;;;;0.60;0.60;;;12.10;70.10;;;;;;4997092;28;20408;-76
2022/03/26 09:58:06;;;;;;;0.90;0.90;;;12.00;69.50;;;;;;5002346;28;20408;-76
2022/03/26 10:00:31;;;;;;;1.20;1.10;;;12.10;70.10;;;;;;5000838;28;20533;-75
2022/03/26 10:02:57;;;;;;;5.40;1.80;;;12.20;69.70;;;;;;5001720;28;20479;-75
2022/03/26 10:05:31;;;;;;;4.40;2.40;;;12.30;69.40;;;;;;5000171;28;20939;-75
2022/03/26 10:07:58;;;;;;;3.28;1.90;;;12.30;69.10;;;;;;4999406;28;20392;-75
2022/03/26 10:10:25;;;;;;;3.00;2.30;;;12.40;69.10;;;;;;5010205;28;20439;-75
2022/03/26 10:12:51;;;;;;;0.70;0.70;;;12.50;68.20;;;;;;5011795;28;20722;-77
2022/03/26 10:15:18;;;;;;;0.80;0.80;;;12.60;68.20;;;;;;5009807;28;20412;-76
2022/03/26 10:17:44;;;;;;;2.50;2.40;;;12.50;68.50;;;;;;5009970;28;20384;-76
2022/03/26 10:20:13;;;;;;;6.60;2.00;;;12.90;67.50;;;;;;5008808;28;20438;-73
2022/03/26 10:22:44;;;;;;;1.50;1.40;;;13.00;67.00;;;;;;5011522;28;20468;-75
2022/03/26 10:25:22;;;;;;;2.90;1.75;;;13.20;67.00;;;;;;5010107;28;20878;-75
2022/03/26 10:27:57;;;;;;;1.70;1.40;;;13.30;66.80;;;;;;4999289;28;20425;-76
2022/03/26 10:33:22;;;;;;;3.70;1.70;;;13.60;66.40;;;;;;4991464;28;20823;-76
2022/03/26 10:35:55;;;;;;;1.30;1.20;;;13.70;65.60;;;;;;4991555;28;20427;-74
2022/03/26 10:38:31;;;;;;;2.95;2.70;;;13.80;64.20;;;;;;4991233;28;20875;-75
2022/03/26 10:41:01;;;;;;;1.20;1.10;;;13.80;64.10;;;;;;4990757;28;20394;-76
2022/03/26 10:43:27;;;;;;;2.10;1.40;;;14.10;64.40;;;;;;4991039;28;20492;-76
2022/03/26 10:45:55;;;;;;;3.50;1.20;;;14.40;64.10;;;;;;4991651;28;20409;-76
2022/03/26 10:48:27;;;;;;;0.90;0.90;;;14.50;63.00;;;;;;4991515;28;20382;-77
2022/03/26 10:51:00;;;;;;;1.50;1.40;;;14.40;62.80;;;;;;4995049;28;20390;-75
2022/03/26 10:53:35;;;;;;;2.35;2.15;;;14.60;62.50;;;;;;4997429;28;20414;-74
2022/03/26 10:56:13;;;;;;;2.00;1.90;;;14.70;61.30;;;;;;5012975;28;20431;-76
2022/03/26 10:58:40;;;;;;;1.93;1.83;;;14.90;61.10;;;;;;5007668;28;20484;-74
2022/03/26 11:01:06;;;;;;;0.80;0.80;;;15.10;60.80;;;;;;5011553;28;20437;-74
2022/03/26 11:03:34;;;;;;;2.50;2.30;;;15.20;59.80;;;;;;5017140;28;20395;-76
2022/03/26 11:06:01;;;;;;;1.20;1.10;;;15.20;59.90;;;;;;5017266;28;20397;-76
2022/03/26 11:08:34;;;;;;;1.20;1.10;;;15.30;59.30;;;;;;5015305;28;20415;-73
2022/03/26 11:11:05;;;;;;;0.75;0.45;;;15.50;59.00;;;;;;5015802;28;20428;-73
2022/03/26 11:13:33;;;;;;;1.23;1.15;;;15.90;58.40;;;;;;5016851;28;20427;-77
2022/03/26 11:16:04;;;;;;;4.50;3.20;;;15.90;58.60;;;;;;5017079;28;20431;-75
2022/03/26 11:18:47;;;;;;;1.70;1.30;;;16.20;58.40;;;;;;5016701;28;20385;-75
2022/03/26 11:21:34;;;;;;;2.40;2.20;;;16.60;57.70;;;;;;5017481;28;20839;-76
2022/03/26 11:24:20;;;;;;;2.30;2.00;;;16.90;57.20;;;;;;5017461;28;20482;-75
2022/03/26 11:27:05;;;;;;;2.40;1.60;;;17.10;56.70;;;;;;5016241;28;20855;-73
2022/03/26 11:29:59;;;;;;;1.20;1.10;;;17.10;55.50;;;;;;5016062;28;20396;-74
2022/03/26 11:32:29;;;;;;;1.83;1.73;;;17.00;55.80;;;;;;5017696;28;20392;-74
2022/03/26 11:35:04;;;;;;;0.60;0.60;;;17.10;55.40;;;;;;5037115;28;20429;-74
2022/03/26 11:37:30;;;;;;;0.45;0.40;;;18.10;54.60;;;;;;5035936;28;20452;-75
2022/03/26 11:39:56;;;;;;;1.20;1.20;;;18.90;53.10;;;;;;5035459;28;20489;-74
2022/03/26 11:42:30;;;;;;;1.00;0.90;;;19.30;52.20;;;;;;5028048;28;20383;-74
2022/03/26 11:50:44;;;;;;;0.80;0.55;;;20.00;48.40;;;;;;5036059;28;20740;-76
2022/03/26 11:53:33;;;;;;;0.80;0.80;;;20.20;48.10;;;;;;5019352;28;20416;-74
2022/03/26 11:56:01;;;;;;;0.60;0.55;;;21.10;48.40;;;;;;5016606;28;20426;-74
2022/03/26 11:58:28;;;;;;;0.67;0.67;;;21.30;46.20;;;;;;5006874;28;20385;-73
2022/03/26 12:01:00;;;;;;;2.10;1.58;;;21.40;44.40;;;;;;5022032;28;20398;-74
2022/03/26 12:03:27;;;;;;;1.40;0.90;;;21.50;43.90;;;;;;5036445;28;20474;-72
2022/03/26 12:08:54;;;;;;;1.95;1.60;;;21.30;44.40;;;;;;5035727;28;20406;-75
2022/03/26 12:11:27;;;;;;;4.20;1.60;;;21.20;45.40;;;;;;5033824;28;20434;-74
2022/03/26 12:14:08;;;;;;;0.80;0.80;;;20.90;44.30;;;;;;5031195;28;20488;-75
2022/03/26 12:16:52;;;;;;;0.52;0.28;;;21.10;44.50;;;;;;5033564;28;20479;-71
2022/03/26 12:19:46;;;;;;;0.50;0.40;;;20.50;43.90;;;;;;5033601;28;20399;-74
2022/03/26 12:22:23;;;;;;;1.10;1.10;;;21.30;44.00;;;;;;5032963;28;20395;-73
2022/03/26 12:24:51;;;;;;;1.00;0.90;;;21.10;43.30;;;;;;5032956;28;20402;-75
2022/03/26 12:27:17;;;;;;;0.50;0.40;;;20.80;43.30;;;;;;5032880;28;20395;-73
2022/03/26 12:29:43;;;;;;;1.50;1.40;;;20.70;43.90;;;;;;5027811;28;20503;-72
2022/03/26 12:32:09;;;;;;;1.40;1.30;;;20.70;43.00;;;;;;4993322;28;20394;-72
2022/03/26 12:34:56;;;;;;;1.35;1.15;;;20.70;43.20;;;;;;4992693;28;20422;-73
2022/03/26 12:37:23;;;;;;;4.83;2.20;;;20.50;43.00;;;;;;5017486;28;20808;-71
2022/03/26 12:39:50;;;;;;;0.93;0.85;;;21.00;43.20;;;;;;5033192;28;20422;-73
2022/03/26 12:42:16;;;;;;;1.35;1.25;;;21.40;43.20;;;;;;5030784;28;20395;-72
2022/03/26 12:44:42;;;;;;;1.85;0.93;;;20.90;42.70;;;;;;5002480;28;20441;-73
2022/03/26 12:47:08;;;;;;;2.97;2.77;;;21.20;43.30;;;;;;4994950;28;20394;-73
2022/03/26 12:49:38;;;;;;;0.70;0.70;;;21.10;42.20;;;;;;5012817;28;20401;-72
2022/03/26 12:52:04;;;;;;;1.73;1.63;;;21.10;42.20;;;;;;5009992;28;20397;-73
2022/03/26 12:54:30;;;;;;;2.38;2.17;;;21.50;41.10;;;;;;5011839;28;20472;-74
2022/03/26 12:56:56;;;;;;;2.22;2.05;;;22.30;41.70;;;;;;5012812;28;20431;-73
2022/03/26 12:59:22;;;;;;;1.20;1.10;;;21.90;40.00;;;;;;5010196;28;20392;-73
2022/03/26 13:01:55;;;;;;;2.00;1.30;;;22.10;40.10;;;;;;5014216;28;20388;-74
2022/03/26 13:04:21;;;;;;;6.50;1.40;;;21.90;40.20;;;;;;5011802;28;20381;-71